createdAt,value
2024-05-09T00:00:36.495Z,60.47
2024-05-09T00:03:07.090Z,60.56
2024-05-09T00:05:34.755Z,59.70
2024-05-09T00:08:02.088Z,59.26
2024-05-09T00:10:35.824Z,59.07
2024-05-09T00:13:06.281Z,58.73
2024-05-09T00:15:34.347Z,58.50
2024-05-09T00:18:02.501Z,59.19
2024-05-09T00:20:37.463Z,58.55
2024-05-09T00:23:12.655Z,59.99
2024-05-09T00:25:42.934Z,61.93
2024-05-09T00:28:10.774Z,62.42
2024-05-09T00:30:37.964Z,62.52
2024-05-09T00:33:06.719Z,63.37
2024-05-09T00:35:35.410Z,64.10
2024-05-09T00:38:02.983Z,63.41
2024-05-09T00:40:48.451Z,63.72
2024-05-09T00:43:15.763Z,62.95
2024-05-09T00:45:43.404Z,62.52
2024-05-09T00:48:14.964Z,63.08
2024-05-09T00:50:46.139Z,63.26
2024-05-09T00:53:16.455Z,64.87
2024-05-09T00:55:44.510Z,65.07
2024-05-09T00:58:16.285Z,64.06
2024-05-09T01:00:44.398Z,65.15
2024-05-09T01:03:13.584Z,66.77
2024-05-09T01:05:43.739Z,65.57
2024-05-09T01:08:11.716Z,66.06
2024-05-09T01:10:40.799Z,65.81
2024-05-09T01:13:10.149Z,65.79
2024-05-09T01:15:37.295Z,66.42
2024-05-09T01:18:08.901Z,66.01
2024-05-09T01:20:41.520Z,65.87
2024-05-09T01:23:12.354Z,64.29
2024-05-09T01:25:40.481Z,65.04
2024-05-09T01:28:07.728Z,63.52
2024-05-09T01:30:37.112Z,63.35
2024-05-09T01:33:08.482Z,63.76
2024-05-09T01:35:37.692Z,63.42
2024-05-09T01:38:05.260Z,63.84
2024-05-09T01:40:38.079Z,63.31
2024-05-09T01:43:11.541Z,64.96
2024-05-09T01:45:40.367Z,66.50
2024-05-09T01:48:08.846Z,66.96
2024-05-09T01:50:40.142Z,68.46
2024-05-09T01:53:11.031Z,68.73
2024-05-09T01:55:38.652Z,67.64
2024-05-09T01:58:06.210Z,67.67
2024-05-09T02:00:39.499Z,67.41
2024-05-09T02:03:13.500Z,67.84
2024-05-09T02:05:44.274Z,68.62
2024-05-09T02:08:17.021Z,68.34
2024-05-09T02:10:44.863Z,69.76
2024-05-09T02:13:13.101Z,69.71
2024-05-09T02:15:40.455Z,69.55
2024-05-09T02:18:08.410Z,69.93
2024-05-09T02:20:39.309Z,69.42
2024-05-09T02:23:07.974Z,69.25
2024-05-09T02:25:35.145Z,68.93
2024-05-09T02:28:02.855Z,69.18
2024-05-09T02:30:38.254Z,69.43
2024-05-09T02:33:10.525Z,68.92
2024-05-09T02:35:39.798Z,68.67
2024-05-09T02:38:09.229Z,68.25
2024-05-09T02:40:38.790Z,68.45
2024-05-09T02:43:09.580Z,68.30
2024-05-09T02:45:38.690Z,67.97
2024-05-09T02:48:06.841Z,66.25
2024-05-09T02:50:38.631Z,65.85
2024-05-09T02:53:12.209Z,65.79
2024-05-09T02:55:40.608Z,65.41
2024-05-09T02:58:07.790Z,65.49
2024-05-09T03:00:39.496Z,65.37
2024-05-09T03:03:12.515Z,65.37
2024-05-09T03:05:42.583Z,64.97
2024-05-09T03:08:10.058Z,65.11
2024-05-09T03:10:38.813Z,65.27
2024-05-09T03:13:11.436Z,66.33
2024-05-09T03:15:38.627Z,68.25
2024-05-09T03:18:06.870Z,67.96
2024-05-09T03:20:35.981Z,67.98
2024-05-09T03:23:06.008Z,67.41
2024-05-09T03:25:33.721Z,67.25
2024-05-09T03:28:01.136Z,66.93
2024-05-09T03:30:36.145Z,66.72
2024-05-09T03:33:14.064Z,65.69
2024-05-09T03:35:45.535Z,65.42
2024-05-09T03:38:12.841Z,65.46
2024-05-09T03:40:50.524Z,66.24
2024-05-09T03:43:19.804Z,66.38
2024-05-09T03:45:48.942Z,66.06
2024-05-09T03:48:16.652Z,66.16
2024-05-09T03:50:44.167Z,66.76
2024-05-09T03:53:12.935Z,66.63
2024-05-09T03:55:40.363Z,67.17
2024-05-09T03:58:08.873Z,68.04
2024-05-09T04:00:38.982Z,68.41
2024-05-09T04:03:10.926Z,69.01
2024-05-09T04:05:42.327Z,69.06
2024-05-09T04:08:11.090Z,69.38
2024-05-09T04:10:38.778Z,68.69
2024-05-09T04:13:06.041Z,69.00
2024-05-09T04:15:33.278Z,68.71
2024-05-09T04:18:01.416Z,67.38
2024-05-09T04:20:37.410Z,68.63
2024-05-09T04:23:11.398Z,68.31
2024-05-09T04:25:41.726Z,68.07
2024-05-09T04:28:08.918Z,67.37
2024-05-09T04:30:39.396Z,67.13
2024-05-09T04:33:11.468Z,66.80
2024-05-09T04:35:41.163Z,66.56
2024-05-09T04:38:08.863Z,67.28
2024-05-09T04:40:37.356Z,66.39
2024-05-09T04:43:06.051Z,66.49
2024-05-09T04:45:33.607Z,66.46
2024-05-09T04:48:01.420Z,66.19
2024-05-09T04:50:35.745Z,65.46
2024-05-09T04:53:07.418Z,64.85
2024-05-09T04:55:35.991Z,65.00
2024-05-09T04:58:03.279Z,63.89
2024-05-09T05:00:36.177Z,64.23
2024-05-09T05:03:08.322Z,64.17
2024-05-09T05:05:40.803Z,63.12
2024-05-09T05:08:12.422Z,63.22
2024-05-09T05:10:40.088Z,62.23
2024-05-09T05:13:07.222Z,61.67
2024-05-09T05:15:34.354Z,61.90
2024-05-09T05:20:33.546Z,60.36
2024-05-09T05:23:01.478Z,60.95
2024-05-09T05:25:28.740Z,61.72
2024-05-09T05:27:55.874Z,60.63
2024-05-09T05:30:28.969Z,60.58
2024-05-09T05:33:00.481Z,60.57
2024-05-09T05:35:27.889Z,60.20
2024-05-09T05:37:55.150Z,60.31
2024-05-09T05:40:28.673Z,60.15
2024-05-09T05:43:04.365Z,58.86
2024-05-09T05:45:31.563Z,59.97
2024-05-09T05:47:58.924Z,59.02
2024-05-09T05:50:32.563Z,59.83
2024-05-09T05:53:05.875Z,60.40
2024-05-09T05:55:33.187Z,60.29
2024-05-09T05:58:01.939Z,60.16
2024-05-09T06:00:35.406Z,59.61
2024-05-09T06:03:06.324Z,60.20
2024-05-09T06:05:33.715Z,59.89
2024-05-09T06:08:01.121Z,59.02
2024-05-09T06:10:37.375Z,59.94
2024-05-09T06:13:08.258Z,59.51
2024-05-09T06:15:35.438Z,59.77
2024-05-09T06:18:05.952Z,59.79
2024-05-09T06:20:36.587Z,58.64
2024-05-09T06:23:06.864Z,58.48
2024-05-09T06:25:37.706Z,57.67
2024-05-09T06:28:05.452Z,56.98
2024-05-09T06:30:38.636Z,58.52
2024-05-09T06:33:10.660Z,59.92
2024-05-09T06:35:39.713Z,60.57
2024-05-09T06:38:07.340Z,60.06
2024-05-09T06:40:38.421Z,61.07
2024-05-09T06:43:14.733Z,62.39
2024-05-09T06:45:42.983Z,60.95
2024-05-09T06:48:10.549Z,59.21
2024-05-09T06:50:39.665Z,58.45
2024-05-09T06:53:08.639Z,57.47
2024-05-09T06:55:36.982Z,57.37
2024-05-09T06:58:06.347Z,55.95
2024-05-09T07:00:39.063Z,57.23
2024-05-09T07:03:13.815Z,55.50
2024-05-09T07:05:43.388Z,54.95
2024-05-09T07:08:10.791Z,56.00
2024-05-09T07:10:38.522Z,56.53
2024-05-09T07:13:13.441Z,55.94
2024-05-09T07:15:41.749Z,54.73
2024-05-09T07:18:13.941Z,54.81
2024-05-09T07:20:42.204Z,53.70
2024-05-09T07:23:11.152Z,53.20
2024-05-09T07:25:40.459Z,51.30
2024-05-09T07:28:13.445Z,52.22
2024-05-09T07:30:41.093Z,51.34
2024-05-09T07:33:08.469Z,51.01
2024-05-09T07:35:35.970Z,50.02
2024-05-09T07:38:03.394Z,50.62
2024-05-09T07:40:35.987Z,51.08
2024-05-09T07:43:05.045Z,49.36
2024-05-09T07:52:23.697Z,50.33
2024-05-09T07:53:39.032Z,52.79
2024-05-09T07:56:10.011Z,51.91
2024-05-09T07:58:38.262Z,50.58
2024-05-09T08:01:05.848Z,51.29
2024-05-09T08:03:33.474Z,50.52
2024-05-09T08:06:01.193Z,50.76
2024-05-09T08:08:28.365Z,49.76
2024-05-09T08:10:55.581Z,49.66
2024-05-09T08:13:23.058Z,49.54
2024-05-09T08:15:50.400Z,50.04
2024-05-09T08:18:17.832Z,50.14
2024-05-09T08:20:49.095Z,50.13
2024-05-09T08:23:16.300Z,49.47
2024-05-09T08:25:43.899Z,49.33
2024-05-09T08:28:11.614Z,49.48
2024-05-09T08:30:38.947Z,50.03
2024-05-09T08:33:07.744Z,49.41
2024-05-09T08:35:36.052Z,49.48
2024-05-09T08:38:04.237Z,49.37
2024-05-09T08:40:35.760Z,49.01
2024-05-09T08:43:10.435Z,48.99
2024-05-09T08:45:40.065Z,48.66
2024-05-09T08:48:08.561Z,49.50
2024-05-09T08:50:40.313Z,47.58
2024-05-09T08:53:08.642Z,47.96
2024-05-09T08:55:40.520Z,48.40
2024-05-09T08:58:16.442Z,48.37
2024-05-09T09:00:45.944Z,48.81
2024-05-09T09:03:21.345Z,47.78
2024-05-09T09:05:56.523Z,48.75
2024-05-09T09:08:26.119Z,47.85
2024-05-09T09:10:57.649Z,48.40
2024-05-09T09:13:25.961Z,48.37
2024-05-09T09:15:53.148Z,48.70
2024-05-09T09:18:20.464Z,49.09
2024-05-09T09:20:47.667Z,48.38
2024-05-09T09:23:14.881Z,47.87
2024-05-09T09:25:42.541Z,47.68
2024-05-09T09:28:10.117Z,47.39
2024-05-09T09:30:40.690Z,47.63
2024-05-09T09:33:11.990Z,48.60
2024-05-09T09:35:40.722Z,48.14
2024-05-09T09:38:08.973Z,48.42
2024-05-09T09:40:42.410Z,47.84
2024-05-09T09:43:19.629Z,46.94
2024-05-09T09:45:50.920Z,47.24
2024-05-09T09:48:20.211Z,46.24
2024-05-09T09:50:51.103Z,45.97
2024-05-09T09:53:23.273Z,45.59
2024-05-09T09:55:52.384Z,45.91
2024-05-09T09:58:20.084Z,45.88
2024-05-09T10:00:47.500Z,45.27
2024-05-09T10:03:15.026Z,47.85
2024-05-09T10:05:46.214Z,46.86
2024-05-09T10:08:17.246Z,46.21
2024-05-09T10:10:47.808Z,45.82
2024-05-09T10:18:59.515Z,44.84
2024-05-09T10:21:34.110Z,44.44
2024-05-09T10:24:05.594Z,44.26
2024-05-09T10:26:35.257Z,43.17
2024-05-09T10:29:19.007Z,44.97
2024-05-09T10:31:50.755Z,43.27
2024-05-09T10:34:23.122Z,42.66
2024-05-09T10:36:54.123Z,43.20
2024-05-09T10:39:21.976Z,42.94
2024-05-09T10:41:49.751Z,43.11
2024-05-09T10:44:22.271Z,43.79
2024-05-09T10:46:50.505Z,42.92
2024-05-09T10:49:17.972Z,42.71
2024-05-09T10:51:46.705Z,44.03
2024-05-09T10:54:14.255Z,43.33
2024-05-09T10:56:41.436Z,42.94
2024-05-09T10:59:08.578Z,43.77
2024-05-09T11:01:36.483Z,43.10
2024-05-09T11:04:04.259Z,43.79
2024-05-09T11:06:31.907Z,44.80
2024-05-09T11:08:59.344Z,45.04
2024-05-09T11:11:27.174Z,44.80
2024-05-09T11:13:54.370Z,44.43
2024-05-09T11:16:21.795Z,44.93
2024-05-09T11:18:54.192Z,43.73
2024-05-09T11:21:21.952Z,43.60
2024-05-09T11:23:49.473Z,44.98
2024-05-09T11:26:16.740Z,44.35
2024-05-09T11:28:45.695Z,44.17
2024-05-09T11:31:12.868Z,43.70
2024-05-09T11:33:43.819Z,44.67
2024-05-09T11:36:11.578Z,44.92
2024-05-09T11:38:38.803Z,45.31
2024-05-09T11:41:06.706Z,46.59
2024-05-09T11:43:33.994Z,46.29
2024-05-09T11:46:01.371Z,46.25
2024-05-09T11:48:28.961Z,46.79
2024-05-09T11:50:56.536Z,46.59
2024-05-09T11:53:23.710Z,46.08
2024-05-09T11:55:50.882Z,45.21
2024-05-09T11:58:19.181Z,46.67
2024-05-09T12:00:47.308Z,46.18
2024-05-09T12:03:14.816Z,47.73
2024-05-09T12:05:42.431Z,47.62
2024-05-09T12:08:09.964Z,47.86
2024-05-09T12:10:37.728Z,47.03
2024-05-09T12:13:06.647Z,47.34
2024-05-09T12:15:38.595Z,45.88
2024-05-09T12:18:07.994Z,46.36
2024-05-09T12:20:38.747Z,45.67
2024-05-09T12:23:10.204Z,45.46
2024-05-09T12:25:39.907Z,45.57
2024-05-09T12:28:08.275Z,45.08
2024-05-09T12:30:38.984Z,44.58
2024-05-09T12:33:09.269Z,45.60
2024-05-09T12:35:37.081Z,46.03
2024-05-09T12:38:04.846Z,45.52
2024-05-09T12:40:36.692Z,45.45
2024-05-09T12:43:10.232Z,46.58
2024-05-09T12:45:39.282Z,46.42
2024-05-09T12:48:08.174Z,45.58
2024-05-09T12:50:36.932Z,45.38
2024-05-09T12:53:05.324Z,46.15
2024-05-09T12:55:41.118Z,44.77
2024-05-09T12:58:17.663Z,45.10
2024-05-09T13:00:45.573Z,44.59
2024-05-09T13:03:13.214Z,45.03
2024-05-09T13:05:40.747Z,45.48
2024-05-09T13:08:08.051Z,44.59
2024-05-09T13:10:35.330Z,45.24
2024-05-09T13:13:02.594Z,44.61
2024-05-09T13:15:31.236Z,45.54
2024-05-09T13:18:02.199Z,46.12
2024-05-09T13:20:34.085Z,45.69
2024-05-09T13:23:05.401Z,44.30
2024-05-09T13:25:33.819Z,44.92
2024-05-09T13:28:02.176Z,44.53
2024-05-09T13:30:38.273Z,43.89
2024-05-09T13:33:12.791Z,44.03
2024-05-09T13:35:46.854Z,44.31
2024-05-09T13:38:17.948Z,44.05
2024-05-09T13:40:45.588Z,43.06
2024-05-09T13:43:13.050Z,44.15
2024-05-09T13:45:40.401Z,43.83
2024-05-09T13:48:07.990Z,44.51
2024-05-09T13:50:36.768Z,44.37
2024-05-09T13:53:06.491Z,44.33
2024-05-09T13:55:37.269Z,44.83
2024-05-09T13:58:04.867Z,44.94
2024-05-09T14:00:42.780Z,44.51
2024-05-09T14:03:16.657Z,44.65
2024-05-09T14:05:46.278Z,45.00
2024-05-09T14:08:13.690Z,45.27
2024-05-09T14:10:40.882Z,45.13
2024-05-09T14:13:08.160Z,43.86
2024-05-09T14:15:35.408Z,43.21
2024-05-09T14:18:02.676Z,44.25
2024-05-09T14:20:32.360Z,44.70
2024-05-09T14:23:00.699Z,44.12
2024-05-09T14:25:29.595Z,43.40
2024-05-09T14:28:00.299Z,44.91
2024-05-09T14:30:34.818Z,43.48
2024-05-09T14:33:06.271Z,43.95
2024-05-09T14:35:34.470Z,43.32
2024-05-09T14:38:02.556Z,42.24
2024-05-09T14:40:39.574Z,43.29
2024-05-09T14:43:15.083Z,44.15
2024-05-09T14:45:43.848Z,43.82
2024-05-09T14:48:15.679Z,44.84
2024-05-09T14:50:43.305Z,45.18
2024-05-09T14:53:12.401Z,45.38
2024-05-09T14:55:41.855Z,44.88
2024-05-09T14:58:11.310Z,46.00
2024-05-09T15:00:44.921Z,46.10
2024-05-09T15:03:15.714Z,45.02
2024-05-09T15:05:42.918Z,46.14
2024-05-09T15:08:10.263Z,45.95
2024-05-09T15:10:37.907Z,45.93
2024-05-09T15:13:07.938Z,45.39
2024-05-09T15:15:37.252Z,45.42
2024-05-09T15:18:06.071Z,44.86
2024-05-09T15:20:36.721Z,45.15
2024-05-09T15:23:06.236Z,44.50
2024-05-09T15:25:35.201Z,45.36
2024-05-09T15:28:03.467Z,45.40
2024-05-09T15:30:33.150Z,45.43
2024-05-09T15:33:02.398Z,45.11
2024-05-09T15:35:29.583Z,44.38
2024-05-09T15:37:56.776Z,44.59
2024-05-09T15:40:34.435Z,44.84
2024-05-09T15:43:07.782Z,44.60
2024-05-09T15:45:35.648Z,44.49
2024-05-09T15:48:03.855Z,44.03
2024-05-09T15:50:37.977Z,44.72
2024-05-09T15:53:12.747Z,45.36
2024-05-09T15:55:42.188Z,44.85
2024-05-09T15:58:10.386Z,45.52
2024-05-09T16:00:41.602Z,45.14
2024-05-09T16:03:12.630Z,44.81
2024-05-09T16:05:41.485Z,45.15
2024-05-09T16:08:09.292Z,44.86
2024-05-09T16:10:38.223Z,44.27
2024-05-09T16:13:06.367Z,44.92
2024-05-09T16:15:33.679Z,45.09
2024-05-09T16:18:01.133Z,44.21
2024-05-09T16:20:37.872Z,43.37
2024-05-09T16:23:08.853Z,43.45
2024-05-09T16:25:36.810Z,44.53
2024-05-09T16:28:08.674Z,44.12
2024-05-09T16:30:41.424Z,44.81
2024-05-09T16:33:09.600Z,45.12
2024-05-09T16:35:40.330Z,45.54
2024-05-09T16:38:07.786Z,44.93
2024-05-09T16:40:39.235Z,45.42
2024-05-09T16:43:10.271Z,45.70
2024-05-09T16:45:40.378Z,45.33
2024-05-09T16:48:08.263Z,45.45
2024-05-09T16:50:36.357Z,45.28
2024-05-09T16:53:05.743Z,45.61
2024-05-09T16:55:34.539Z,45.89
2024-05-09T16:58:02.337Z,45.88
2024-05-09T17:00:38.457Z,44.91
2024-05-09T17:03:12.344Z,45.42
2024-05-09T17:05:40.853Z,45.57
2024-05-09T17:08:08.915Z,46.03
2024-05-09T17:10:36.727Z,45.34
2024-05-09T17:13:06.287Z,46.13
2024-05-09T17:15:37.026Z,46.00
2024-05-09T17:18:06.956Z,45.13
2024-05-09T17:20:36.776Z,45.67
2024-05-09T17:23:06.159Z,46.52
2024-05-09T17:25:34.139Z,46.50
2024-05-09T17:28:02.182Z,46.21
2024-05-09T17:30:35.268Z,46.11
2024-05-09T17:33:07.378Z,45.66
2024-05-09T17:35:36.231Z,45.87
2024-05-09T17:38:05.064Z,46.16
2024-05-09T17:40:35.817Z,46.12
2024-05-09T17:43:05.956Z,46.90
2024-05-09T17:45:33.933Z,46.62
2024-05-09T17:48:01.689Z,46.76
2024-05-09T17:50:35.416Z,46.00
2024-05-09T17:53:05.883Z,46.22
2024-05-09T17:55:33.489Z,46.76
2024-05-09T17:58:01.250Z,47.33
2024-05-09T18:00:36.867Z,47.97
2024-05-09T18:03:08.404Z,47.70
2024-05-09T18:05:37.078Z,48.22
2024-05-09T18:08:08.369Z,48.04
2024-05-09T18:10:38.526Z,47.96
2024-05-09T18:13:08.323Z,47.42
2024-05-09T18:15:36.745Z,47.12
2024-05-09T18:18:04.966Z,48.34
2024-05-09T18:20:40.734Z,48.39
2024-05-09T18:23:11.871Z,47.63
2024-05-09T18:25:39.055Z,48.35
2024-05-09T18:28:06.797Z,47.86
2024-05-09T18:30:36.228Z,48.39
2024-05-09T18:33:06.559Z,48.78
2024-05-09T18:35:35.722Z,49.23
2024-05-09T18:38:03.975Z,49.52
2024-05-09T18:40:35.140Z,48.95
2024-05-09T18:43:07.572Z,48.65
2024-05-09T18:45:39.307Z,48.99
2024-05-09T18:48:08.510Z,49.21
2024-05-09T18:50:39.244Z,49.97
2024-05-09T18:53:09.459Z,50.40
2024-05-09T18:55:36.616Z,50.25
2024-05-09T18:58:04.569Z,50.81
2024-05-09T19:00:36.226Z,50.86
2024-05-09T19:03:07.045Z,50.93
2024-05-09T19:05:36.083Z,52.16
2024-05-09T19:08:04.142Z,52.22
2024-05-09T19:10:34.647Z,52.17
2024-05-09T19:13:07.251Z,52.90
2024-05-09T19:15:39.332Z,52.96
2024-05-09T19:18:07.571Z,53.41
2024-05-09T19:20:36.572Z,53.59
2024-05-09T19:23:06.655Z,52.94
2024-05-09T19:25:35.691Z,53.62
2024-05-09T19:28:04.461Z,53.51
2024-05-09T19:30:38.732Z,53.28
2024-05-09T19:33:10.604Z,53.16
2024-05-09T19:35:38.911Z,53.32
2024-05-09T19:38:06.361Z,52.95
2024-05-09T19:40:34.900Z,52.79
2024-05-09T19:43:05.200Z,53.14
2024-05-09T19:45:34.680Z,53.71
2024-05-09T19:48:03.437Z,53.49
2024-05-09T19:50:37.651Z,52.93
2024-05-09T19:53:10.247Z,54.18
2024-05-09T19:55:37.981Z,53.79
2024-05-09T19:58:06.834Z,53.61
2024-05-09T20:00:38.271Z,54.70
2024-05-09T20:03:08.212Z,55.08
2024-05-09T20:05:36.582Z,55.13
2024-05-09T20:08:04.867Z,54.96
2024-05-09T20:10:34.469Z,54.64
2024-05-09T20:13:04.778Z,54.78
2024-05-09T20:15:35.336Z,54.34
2024-05-09T20:18:04.314Z,53.83
2024-05-09T20:20:37.732Z,54.95
2024-05-09T20:23:09.901Z,54.96
2024-05-09T20:25:37.485Z,55.06
2024-05-09T20:28:05.425Z,55.58
2024-05-09T20:30:34.466Z,55.45
2024-05-09T20:33:05.020Z,55.99
2024-05-09T20:35:33.671Z,55.70
2024-05-09T20:38:01.953Z,56.10
2024-05-09T20:40:34.260Z,56.06
2024-05-09T20:43:05.352Z,55.32
2024-05-09T20:45:32.850Z,55.52
2024-05-09T20:48:00.478Z,55.96
2024-05-09T20:50:35.983Z,55.75
2024-05-09T20:53:14.440Z,56.36
2024-05-09T20:55:44.181Z,56.13
2024-05-09T20:58:12.345Z,56.67
2024-05-09T21:00:43.396Z,57.24
2024-05-09T21:03:14.641Z,56.71
2024-05-09T21:05:43.279Z,56.38
2024-05-09T21:08:10.571Z,56.26
2024-05-09T21:10:38.060Z,56.95
2024-05-09T21:13:06.791Z,56.31
2024-05-09T21:15:35.166Z,55.79
2024-05-09T21:18:02.994Z,56.71
2024-05-09T21:20:31.936Z,56.83
2024-05-09T21:23:01.287Z,57.26
2024-05-09T21:25:28.880Z,57.08
2024-05-09T21:27:56.219Z,57.92
2024-05-09T21:30:32.515Z,57.59
2024-05-09T21:33:09.922Z,57.96
2024-05-09T21:35:39.259Z,58.20
2024-05-09T21:38:06.434Z,58.60
2024-05-09T21:40:35.688Z,57.88
2024-05-09T21:43:04.891Z,58.40
2024-05-09T21:45:33.450Z,58.79
2024-05-09T21:48:03.394Z,58.68
2024-05-09T21:50:37.071Z,57.84
2024-05-09T21:53:08.123Z,56.75
2024-05-09T21:55:35.282Z,57.09
2024-05-09T21:58:03.173Z,56.50
2024-05-09T22:00:36.960Z,56.81
2024-05-09T22:03:08.213Z,56.90
2024-05-09T22:05:36.663Z,57.26
2024-05-09T22:08:04.169Z,58.47
2024-05-09T22:10:34.843Z,58.91
2024-05-09T22:13:05.668Z,58.40
2024-05-09T22:15:38.726Z,58.93
2024-05-09T22:18:07.142Z,58.79
2024-05-09T22:20:38.278Z,59.38
2024-05-09T22:23:07.803Z,59.03
2024-05-09T22:25:36.083Z,58.71
2024-05-09T22:28:03.628Z,57.80
2024-05-09T22:30:36.068Z,57.38
2024-05-09T22:33:07.423Z,58.26
2024-05-09T22:35:35.119Z,56.58
2024-05-09T22:38:03.081Z,55.98
2024-05-09T22:40:38.986Z,54.68
2024-05-09T22:43:17.113Z,55.61
2024-05-09T22:45:44.588Z,55.47
2024-05-09T22:48:11.973Z,55.79
2024-05-09T22:50:40.314Z,56.17
2024-05-09T22:53:07.446Z,55.79
2024-05-09T22:55:34.620Z,56.50
2024-05-09T22:58:01.951Z,56.19
2024-05-09T23:00:32.050Z,56.31
2024-05-09T23:03:01.604Z,56.62
2024-05-09T23:05:30.335Z,56.30
2024-05-09T23:07:57.982Z,56.32
2024-05-09T23:10:32.192Z,56.40
2024-05-09T23:13:04.114Z,56.01
2024-05-09T23:15:31.700Z,56.88
2024-05-09T23:17:59.295Z,56.86
2024-05-09T23:20:35.342Z,57.11
2024-05-09T23:23:06.456Z,57.40
2024-05-09T23:25:34.026Z,57.05
2024-05-09T23:28:01.404Z,56.93
2024-05-09T23:30:36.502Z,57.88
2024-05-09T23:33:08.250Z,57.36
2024-05-09T23:35:35.805Z,57.61
2024-05-09T23:38:03.685Z,57.96
2024-05-09T23:40:38.264Z,57.43
2024-05-09T23:43:09.892Z,57.28
2024-05-09T23:45:37.969Z,57.88
2024-05-09T23:48:06.115Z,58.00
2024-05-09T23:50:37.169Z,58.25
2024-05-09T23:53:07.975Z,58.49
2024-05-09T23:55:36.596Z,58.47
2024-05-09T23:58:04.018Z,59.05
